<?xml version="1.0" encoding="UTF-8" standalone="no" ?>
<gpx version="1.1" creator="Visorando" xmlns:xsi="http://www.w3.org/2001/XMLSchema-instance" xmlns="http://www.topografix.com/GPX/1/1" xsi:schemaLocation="http://www.topografix.com/GPX/1/1 http://www.topografix.com/GPX/1/1/gpx.xsd">
 <metadata>
  <name>Le long de la Cure par le vieux pont de Pierre-Perthuis</name>
  <link href="https://www.visorando.com/randonnee-le-long-de-la-cure-par-le-vieux-pont-de-/">
   <text>https://www.visorando.com/randonnee-le-long-de-la-cure-par-le-vieux-pont-de-/</text>
  </link>
 </metadata>
 <wpt lat="47.41624" lon="3.809794">
  <ele>180</ele>
  <time>2019-06-08T13:55:19+02:00</time>
  <name>Parking de la mairie de Domecy-sur-Cure</name>
 </wpt>
 <wpt lat="47.412142" lon="3.80584">
  <ele>225</ele>
  <time>2019-06-08T14:05:42+02:00</time>
  <name>Départ de chemin</name>
 </wpt>
 <wpt lat="47.410515" lon="3.797986">
  <ele>236</ele>
  <time>2019-06-08T14:13:26+02:00</time>
  <name>Château de Domecy</name>
 </wpt>
 <wpt lat="47.418758" lon="3.791187">
  <ele>222</ele>
  <time>2019-06-08T14:29:21+02:00</time>
  <name>Bifurcation</name>
 </wpt>
 <wpt lat="47.421482" lon="3.788607">
  <ele>221</ele>
  <time>2019-06-08T14:36:15+02:00</time>
  <name>Ch</name>
 </wpt>
 <wpt lat="47.427517" lon="3.784243">
  <ele>178</ele>
  <time>2019-06-08T14:47:50+02:00</time>
  <name>Intersection</name>
 </wpt>
 <wpt lat="47.431502" lon="3.783674">
  <ele>165</ele>
  <time>2019-06-08T14:54:20+02:00</time>
  <name>Intersection</name>
 </wpt>
 <wpt lat="47.427793" lon="3.793899">
  <ele>165</ele>
  <time>2019-06-08T15:19:08+02:00</time>
  <name>Montée</name>
 </wpt>
 <wpt lat="47.427669" lon="3.795033">
  <ele>167</ele>
  <time>2019-06-08T15:21:15+02:00</time>
  <name>Fourche</name>
 </wpt>
 <wpt lat="47.420447" lon="3.798147">
  <ele>172</ele>
  <time>2019-06-08T15:43:23+02:00</time>
  <name>Barrage</name>
 </wpt>
 <wpt lat="47.420403" lon="3.798405">
  <ele>174</ele>
  <time>2019-06-08T15:44:28+02:00</time>
  <name>Barrage de Malassy</name>
 </wpt>
 <wpt lat="47.416175" lon="3.804783">
  <ele>176</ele>
  <time>2019-06-08T15:55:34+02:00</time>
  <name>Fourche</name>
 </wpt>
 <wpt lat="47.417888" lon="3.805805">
  <ele>218</ele>
  <time>2019-06-08T16:03:19+02:00</time>
  <name>Fourche</name>
 </wpt>
 <wpt lat="47.421173" lon="3.808662">
  <ele>213</ele>
  <time>2019-06-08T16:13:46+02:00</time>
  <name>Pt vue</name>
 </wpt>
 <wpt lat="47.421561" lon="3.809933">
  <ele>227</ele>
  <time>2019-06-08T16:21:23+02:00</time>
  <name>Notre-Dame de la Lumière - Accès</name>
 </wpt>
 <wpt lat="47.41624" lon="3.809794">
  <ele>180</ele>
  <time>2019-06-08T16:45:45+02:00</time>
  <name>Parking de la mairie de Domecy-sur-Cure</name>
 </wpt>
 <trk>
  <name>Le long de la Cure par le vieux pont de Pierre-Perthuis</name>
  <trkseg>
   <trkpt lat="47.41624" lon="3.809794">
    <ele>180</ele>
    <time>2019-06-08T13:55:19+02:00</time>
   </trkpt>
   <trkpt lat="47.416229" lon="3.810073">
    <ele>182</ele>
    <time>2019-06-08T13:56:55+02:00</time>
   </trkpt>
   <trkpt lat="47.416098" lon="3.810132">
    <ele>183</ele>
    <time>2020-05-22T17:30:33+02:00</time>
   </trkpt>
   <trkpt lat="47.415961" lon="3.810378">
    <ele>185</ele>
    <time>2020-05-22T17:30:38+02:00</time>
   </trkpt>
   <trkpt lat="47.415859" lon="3.810587">
    <ele>186</ele>
    <time>2019-06-08T13:57:21+02:00</time>
   </trkpt>
   <trkpt lat="47.415755" lon="3.810647">
    <ele>187</ele>
    <time>2019-06-08T13:57:41+02:00</time>
   </trkpt>
   <trkpt lat="47.415503" lon="3.810679">
    <ele>189</ele>
    <time>2019-06-08T13:58:06+02:00</time>
   </trkpt>
   <trkpt lat="47.415285" lon="3.810765">
    <ele>191</ele>
    <time>2019-06-08T13:58:32+02:00</time>
   </trkpt>
   <trkpt lat="47.415097" lon="3.810818">
    <ele>193</ele>
    <time>2019-06-08T13:59:06+02:00</time>
   </trkpt>
   <trkpt lat="47.414879" lon="3.810561">
    <ele>195</ele>
    <time>2019-06-08T13:59:39+02:00</time>
   </trkpt>
   <trkpt lat="47.414705" lon="3.810373">
    <ele>197</ele>
    <time>2019-06-08T14:00:00+02:00</time>
   </trkpt>
   <trkpt lat="47.41452" lon="3.810155">
    <ele>200</ele>
    <time>2019-06-08T14:00:22+02:00</time>
   </trkpt>
   <trkpt lat="47.414345" lon="3.809945">
    <ele>203</ele>
    <time>2019-06-08T14:00:40+02:00</time>
   </trkpt>
   <trkpt lat="47.414155" lon="3.809743">
    <ele>204</ele>
    <time>2019-06-08T14:01:00+02:00</time>
   </trkpt>
   <trkpt lat="47.413967" lon="3.809555">
    <ele>204</ele>
    <time>2019-06-08T14:01:19+02:00</time>
   </trkpt>
   <trkpt lat="47.413775" lon="3.809373">
    <ele>205</ele>
    <time>2019-06-08T14:01:37+02:00</time>
   </trkpt>
   <trkpt lat="47.413593" lon="3.809147">
    <ele>206</ele>
    <time>2019-06-08T14:01:56+02:00</time>
   </trkpt>
   <trkpt lat="47.413397" lon="3.808952">
    <ele>208</ele>
    <time>2019-06-08T14:02:15+02:00</time>
   </trkpt>
   <trkpt lat="47.413205" lon="3.808768">
    <ele>209</ele>
    <time>2019-06-08T14:02:33+02:00</time>
   </trkpt>
   <trkpt lat="47.413008" lon="3.808602">
    <ele>209</ele>
    <time>2019-06-08T14:02:51+02:00</time>
   </trkpt>
   <trkpt lat="47.41287" lon="3.808335">
    <ele>209</ele>
    <time>2019-06-08T14:03:10+02:00</time>
   </trkpt>
   <trkpt lat="47.412805" lon="3.80801">
    <ele>211</ele>
    <time>2019-06-08T14:03:28+02:00</time>
   </trkpt>
   <trkpt lat="47.412737" lon="3.807677">
    <ele>212</ele>
    <time>2019-06-08T14:03:46+02:00</time>
   </trkpt>
   <trkpt lat="47.412653" lon="3.80736">
    <ele>214</ele>
    <time>2019-06-08T14:04:05+02:00</time>
   </trkpt>
   <trkpt lat="47.41258" lon="3.807045">
    <ele>216</ele>
    <time>2019-06-08T14:04:24+02:00</time>
   </trkpt>
   <trkpt lat="47.412465" lon="3.80675">
    <ele>219</ele>
    <time>2019-06-08T14:04:42+02:00</time>
   </trkpt>
   <trkpt lat="47.412432" lon="3.80643">
    <ele>222</ele>
    <time>2019-06-08T14:05:02+02:00</time>
   </trkpt>
   <trkpt lat="47.412287" lon="3.806173">
    <ele>223</ele>
    <time>2019-06-08T14:05:23+02:00</time>
   </trkpt>
   <trkpt lat="47.412142" lon="3.80584">
    <ele>225</ele>
    <time>2019-06-08T14:05:42+02:00</time>
   </trkpt>
   <trkpt lat="47.412127" lon="3.805658">
    <ele>226</ele>
    <time>2019-06-08T14:06:10+02:00</time>
   </trkpt>
   <trkpt lat="47.411975" lon="3.80525">
    <ele>228</ele>
    <time>2019-06-08T14:06:30+02:00</time>
   </trkpt>
   <trkpt lat="47.411859" lon="3.804928">
    <ele>229</ele>
    <time>2019-06-08T14:06:50+02:00</time>
   </trkpt>
   <trkpt lat="47.411771" lon="3.804649">
    <ele>230</ele>
    <time>2019-06-08T14:07:11+02:00</time>
   </trkpt>
   <trkpt lat="47.411677" lon="3.804327">
    <ele>232</ele>
    <time>2019-06-08T14:07:29+02:00</time>
   </trkpt>
   <trkpt lat="47.411563" lon="3.803997">
    <ele>234</ele>
    <time>2019-06-08T14:07:47+02:00</time>
   </trkpt>
   <trkpt lat="47.411488" lon="3.803705">
    <ele>235</ele>
    <time>2019-06-08T14:08:02+02:00</time>
   </trkpt>
   <trkpt lat="47.411401" lon="3.803383">
    <ele>236</ele>
    <time>2019-06-08T14:08:20+02:00</time>
   </trkpt>
   <trkpt lat="47.41134" lon="3.803052">
    <ele>237</ele>
    <time>2019-06-08T14:08:39+02:00</time>
   </trkpt>
   <trkpt lat="47.411305" lon="3.802713">
    <ele>238</ele>
    <time>2019-06-08T14:08:58+02:00</time>
   </trkpt>
   <trkpt lat="47.41125" lon="3.802383">
    <ele>238</ele>
    <time>2019-06-08T14:09:15+02:00</time>
   </trkpt>
   <trkpt lat="47.411222" lon="3.802038">
    <ele>239</ele>
    <time>2019-06-08T14:09:34+02:00</time>
   </trkpt>
   <trkpt lat="47.41119" lon="3.801697">
    <ele>239</ele>
    <time>2019-06-08T14:09:54+02:00</time>
   </trkpt>
   <trkpt lat="47.411154" lon="3.801377">
    <ele>239</ele>
    <time>2019-06-08T14:10:12+02:00</time>
   </trkpt>
   <trkpt lat="47.411111" lon="3.800991">
    <ele>240</ele>
    <time>2019-06-08T14:10:27+02:00</time>
   </trkpt>
   <trkpt lat="47.411082" lon="3.800679">
    <ele>240</ele>
    <time>2019-06-08T14:10:45+02:00</time>
   </trkpt>
   <trkpt lat="47.411038" lon="3.800368">
    <ele>240</ele>
    <time>2019-06-08T14:11:09+02:00</time>
   </trkpt>
   <trkpt lat="47.411" lon="3.800015">
    <ele>240</ele>
    <time>2019-06-08T14:11:31+02:00</time>
   </trkpt>
   <trkpt lat="47.41098" lon="3.799671">
    <ele>239</ele>
    <time>2019-06-08T14:11:45+02:00</time>
   </trkpt>
   <trkpt lat="47.410936" lon="3.79936">
    <ele>239</ele>
    <time>2019-06-08T14:12:05+02:00</time>
   </trkpt>
   <trkpt lat="47.4109" lon="3.799059">
    <ele>238</ele>
    <time>2019-06-08T14:12:24+02:00</time>
   </trkpt>
   <trkpt lat="47.410857" lon="3.798727">
    <ele>239</ele>
    <time>2019-06-08T14:12:44+02:00</time>
   </trkpt>
   <trkpt lat="47.410798" lon="3.798501">
    <ele>239</ele>
    <time>2020-05-22T17:34:38+02:00</time>
   </trkpt>
   <trkpt lat="47.410733" lon="3.798298">
    <ele>238</ele>
    <time>2019-06-08T14:13:04+02:00</time>
   </trkpt>
   <trkpt lat="47.410617" lon="3.798083">
    <ele>237</ele>
    <time>2020-05-22T17:34:48+02:00</time>
   </trkpt>
   <trkpt lat="47.410515" lon="3.797986">
    <ele>236</ele>
    <time>2019-06-08T14:13:26+02:00</time>
   </trkpt>
   <trkpt lat="47.410563" lon="3.797752">
    <ele>235</ele>
    <time>2019-06-08T14:14:43+02:00</time>
   </trkpt>
   <trkpt lat="47.410682" lon="3.797536">
    <ele>234</ele>
    <time>2019-06-08T14:15:23+02:00</time>
   </trkpt>
   <trkpt lat="47.41098" lon="3.797504">
    <ele>235</ele>
    <time>2019-06-08T14:16:32+02:00</time>
   </trkpt>
   <trkpt lat="47.411176" lon="3.797493">
    <ele>235</ele>
    <time>2019-06-08T14:16:47+02:00</time>
   </trkpt>
   <trkpt lat="47.411452" lon="3.797482">
    <ele>236</ele>
    <time>2019-06-08T14:17:02+02:00</time>
   </trkpt>
   <trkpt lat="47.411692" lon="3.797311">
    <ele>234</ele>
    <time>2019-06-08T14:17:19+02:00</time>
   </trkpt>
   <trkpt lat="47.411888" lon="3.79716">
    <ele>233</ele>
    <time>2019-06-08T14:17:39+02:00</time>
   </trkpt>
   <trkpt lat="47.412047" lon="3.796989">
    <ele>232</ele>
    <time>2019-06-08T14:17:59+02:00</time>
   </trkpt>
   <trkpt lat="47.412232" lon="3.79682">
    <ele>232</ele>
    <time>2019-06-08T14:18:21+02:00</time>
   </trkpt>
   <trkpt lat="47.412425" lon="3.796656">
    <ele>232</ele>
    <time>2019-06-08T14:18:41+02:00</time>
   </trkpt>
   <trkpt lat="47.412622" lon="3.796482">
    <ele>231</ele>
    <time>2019-06-08T14:19:01+02:00</time>
   </trkpt>
   <trkpt lat="47.412795" lon="3.796356">
    <ele>231</ele>
    <time>2019-06-08T14:19:24+02:00</time>
   </trkpt>
   <trkpt lat="47.412998" lon="3.796184">
    <ele>231</ele>
    <time>2019-06-08T14:19:44+02:00</time>
   </trkpt>
   <trkpt lat="47.413209" lon="3.796002">
    <ele>232</ele>
    <time>2019-06-08T14:20:02+02:00</time>
   </trkpt>
   <trkpt lat="47.413398" lon="3.795841">
    <ele>232</ele>
    <time>2019-06-08T14:20:25+02:00</time>
   </trkpt>
   <trkpt lat="47.413645" lon="3.795615">
    <ele>231</ele>
    <time>2019-06-08T14:20:45+02:00</time>
   </trkpt>
   <trkpt lat="47.413848" lon="3.795412">
    <ele>230</ele>
    <time>2019-06-08T14:21:02+02:00</time>
   </trkpt>
   <trkpt lat="47.414058" lon="3.795229">
    <ele>229</ele>
    <time>2019-06-08T14:21:22+02:00</time>
   </trkpt>
   <trkpt lat="47.414254" lon="3.79509">
    <ele>229</ele>
    <time>2019-06-08T14:21:36+02:00</time>
   </trkpt>
   <trkpt lat="47.414414" lon="3.794897">
    <ele>229</ele>
    <time>2019-06-08T14:21:57+02:00</time>
   </trkpt>
   <trkpt lat="47.414646" lon="3.794714">
    <ele>229</ele>
    <time>2019-06-08T14:22:22+02:00</time>
   </trkpt>
   <trkpt lat="47.414813" lon="3.794618">
    <ele>229</ele>
    <time>2019-06-08T14:22:42+02:00</time>
   </trkpt>
   <trkpt lat="47.414972" lon="3.794438">
    <ele>229</ele>
    <time>2019-06-08T14:23:02+02:00</time>
   </trkpt>
   <trkpt lat="47.415167" lon="3.794253">
    <ele>229</ele>
    <time>2019-06-08T14:23:23+02:00</time>
   </trkpt>
   <trkpt lat="47.415372" lon="3.794078">
    <ele>228</ele>
    <time>2019-06-08T14:23:46+02:00</time>
   </trkpt>
   <trkpt lat="47.415554" lon="3.793963">
    <ele>228</ele>
    <time>2019-06-08T14:24:06+02:00</time>
   </trkpt>
   <trkpt lat="47.415779" lon="3.79377">
    <ele>228</ele>
    <time>2019-06-08T14:24:27+02:00</time>
   </trkpt>
   <trkpt lat="47.415968" lon="3.793598">
    <ele>227</ele>
    <time>2019-06-08T14:24:44+02:00</time>
   </trkpt>
   <trkpt lat="47.416164" lon="3.793427">
    <ele>226</ele>
    <time>2019-06-08T14:24:58+02:00</time>
   </trkpt>
   <trkpt lat="47.416367" lon="3.793234">
    <ele>224</ele>
    <time>2019-06-08T14:25:20+02:00</time>
   </trkpt>
   <trkpt lat="47.416585" lon="3.793073">
    <ele>223</ele>
    <time>2019-06-08T14:25:37+02:00</time>
   </trkpt>
   <trkpt lat="47.416765" lon="3.79288">
    <ele>222</ele>
    <time>2019-06-08T14:25:58+02:00</time>
   </trkpt>
   <trkpt lat="47.416955" lon="3.792729">
    <ele>221</ele>
    <time>2019-06-08T14:26:16+02:00</time>
   </trkpt>
   <trkpt lat="47.417137" lon="3.792558">
    <ele>220</ele>
    <time>2019-06-08T14:26:34+02:00</time>
   </trkpt>
   <trkpt lat="47.417325" lon="3.79244">
    <ele>219</ele>
    <time>2019-06-08T14:26:48+02:00</time>
   </trkpt>
   <trkpt lat="47.417579" lon="3.792214">
    <ele>218</ele>
    <time>2019-06-08T14:27:07+02:00</time>
   </trkpt>
   <trkpt lat="47.417725" lon="3.792075">
    <ele>219</ele>
    <time>2019-06-08T14:27:28+02:00</time>
   </trkpt>
   <trkpt lat="47.417942" lon="3.791903">
    <ele>219</ele>
    <time>2019-06-08T14:27:47+02:00</time>
   </trkpt>
   <trkpt lat="47.418131" lon="3.791753">
    <ele>219</ele>
    <time>2019-06-08T14:28:07+02:00</time>
   </trkpt>
   <trkpt lat="47.418313" lon="3.791571">
    <ele>220</ele>
    <time>2019-06-08T14:28:27+02:00</time>
   </trkpt>
   <trkpt lat="47.41853" lon="3.791388">
    <ele>221</ele>
    <time>2019-06-08T14:28:43+02:00</time>
   </trkpt>
   <trkpt lat="47.418758" lon="3.791187">
    <ele>222</ele>
    <time>2019-06-08T14:29:21+02:00</time>
   </trkpt>
   <trkpt lat="47.418959" lon="3.791013">
    <ele>222</ele>
    <time>2019-06-08T14:31:34+02:00</time>
   </trkpt>
   <trkpt lat="47.419107" lon="3.790753">
    <ele>223</ele>
    <time>2019-06-08T14:31:54+02:00</time>
   </trkpt>
   <trkpt lat="47.419297" lon="3.790552">
    <ele>223</ele>
    <time>2019-06-08T14:32:20+02:00</time>
   </trkpt>
   <trkpt lat="47.419473" lon="3.790345">
    <ele>223</ele>
    <time>2019-06-08T14:32:46+02:00</time>
   </trkpt>
   <trkpt lat="47.419658" lon="3.79014">
    <ele>223</ele>
    <time>2019-06-08T14:33:08+02:00</time>
   </trkpt>
   <trkpt lat="47.419865" lon="3.789998">
    <ele>223</ele>
    <time>2019-06-08T14:33:25+02:00</time>
   </trkpt>
   <trkpt lat="47.420063" lon="3.78982">
    <ele>222</ele>
    <time>2019-06-08T14:33:44+02:00</time>
   </trkpt>
   <trkpt lat="47.420287" lon="3.789661">
    <ele>222</ele>
    <time>2019-06-08T14:34:09+02:00</time>
   </trkpt>
   <trkpt lat="47.420478" lon="3.789515">
    <ele>222</ele>
    <time>2019-06-08T14:34:31+02:00</time>
   </trkpt>
   <trkpt lat="47.420658" lon="3.789302">
    <ele>223</ele>
    <time>2019-06-08T14:34:50+02:00</time>
   </trkpt>
   <trkpt lat="47.420862" lon="3.789138">
    <ele>223</ele>
    <time>2019-06-08T14:35:09+02:00</time>
   </trkpt>
   <trkpt lat="47.421065" lon="3.788932">
    <ele>222</ele>
    <time>2019-06-08T14:35:27+02:00</time>
   </trkpt>
   <trkpt lat="47.42128" lon="3.788773">
    <ele>222</ele>
    <time>2019-06-08T14:35:53+02:00</time>
   </trkpt>
   <trkpt lat="47.421482" lon="3.788607">
    <ele>221</ele>
    <time>2019-06-08T14:36:15+02:00</time>
   </trkpt>
   <trkpt lat="47.421746" lon="3.788609">
    <ele>221</ele>
    <time>2019-06-08T14:37:00+02:00</time>
   </trkpt>
   <trkpt lat="47.421986" lon="3.788416">
    <ele>221</ele>
    <time>2019-06-08T14:37:24+02:00</time>
   </trkpt>
   <trkpt lat="47.42216" lon="3.788234">
    <ele>220</ele>
    <time>2019-06-08T14:37:47+02:00</time>
   </trkpt>
   <trkpt lat="47.422378" lon="3.788041">
    <ele>220</ele>
    <time>2019-06-08T14:38:22+02:00</time>
   </trkpt>
   <trkpt lat="47.422559" lon="3.787901">
    <ele>219</ele>
    <time>2019-06-08T14:38:41+02:00</time>
   </trkpt>
   <trkpt lat="47.422755" lon="3.787698">
    <ele>219</ele>
    <time>2019-06-08T14:39:01+02:00</time>
   </trkpt>
   <trkpt lat="47.42293" lon="3.787515">
    <ele>219</ele>
    <time>2019-06-08T14:39:21+02:00</time>
   </trkpt>
   <trkpt lat="47.423133" lon="3.787376">
    <ele>218</ele>
    <time>2019-06-08T14:39:42+02:00</time>
   </trkpt>
   <trkpt lat="47.423307" lon="3.787192">
    <ele>217</ele>
    <time>2019-06-08T14:40:01+02:00</time>
   </trkpt>
   <trkpt lat="47.423502" lon="3.787015">
    <ele>216</ele>
    <time>2019-06-08T14:40:23+02:00</time>
   </trkpt>
   <trkpt lat="47.42371" lon="3.786883">
    <ele>215</ele>
    <time>2019-06-08T14:40:40+02:00</time>
   </trkpt>
   <trkpt lat="47.423902" lon="3.786677">
    <ele>213</ele>
    <time>2019-06-08T14:41:05+02:00</time>
   </trkpt>
   <trkpt lat="47.424105" lon="3.78653">
    <ele>212</ele>
    <time>2019-06-08T14:41:33+02:00</time>
   </trkpt>
   <trkpt lat="47.4243" lon="3.78634">
    <ele>209</ele>
    <time>2019-06-08T14:42:05+02:00</time>
   </trkpt>
   <trkpt lat="47.424493" lon="3.78617">
    <ele>207</ele>
    <time>2019-06-08T14:42:41+02:00</time>
   </trkpt>
   <trkpt lat="47.424692" lon="3.785995">
    <ele>205</ele>
    <time>2019-06-08T14:43:07+02:00</time>
   </trkpt>
   <trkpt lat="47.424885" lon="3.785758">
    <ele>202</ele>
    <time>2019-06-08T14:43:37+02:00</time>
   </trkpt>
   <trkpt lat="47.425092" lon="3.785602">
    <ele>199</ele>
    <time>2019-06-08T14:43:57+02:00</time>
   </trkpt>
   <trkpt lat="47.425277" lon="3.785412">
    <ele>197</ele>
    <time>2019-06-08T14:44:18+02:00</time>
   </trkpt>
   <trkpt lat="47.425465" lon="3.785227">
    <ele>196</ele>
    <time>2019-06-08T14:44:39+02:00</time>
   </trkpt>
   <trkpt lat="47.425665" lon="3.785067">
    <ele>194</ele>
    <time>2019-06-08T14:44:59+02:00</time>
   </trkpt>
   <trkpt lat="47.425875" lon="3.784893">
    <ele>192</ele>
    <time>2019-06-08T14:45:20+02:00</time>
   </trkpt>
   <trkpt lat="47.42608" lon="3.78473">
    <ele>189</ele>
    <time>2019-06-08T14:45:42+02:00</time>
   </trkpt>
   <trkpt lat="47.4263" lon="3.784585">
    <ele>186</ele>
    <time>2019-06-08T14:46:07+02:00</time>
   </trkpt>
   <trkpt lat="47.42652" lon="3.784483">
    <ele>184</ele>
    <time>2019-06-08T14:46:29+02:00</time>
   </trkpt>
   <trkpt lat="47.426752" lon="3.784435">
    <ele>183</ele>
    <time>2019-06-08T14:46:50+02:00</time>
   </trkpt>
   <trkpt lat="47.426977" lon="3.784367">
    <ele>181</ele>
    <time>2019-06-08T14:47:08+02:00</time>
   </trkpt>
   <trkpt lat="47.42719" lon="3.784329">
    <ele>180</ele>
    <time>2019-06-08T14:47:31+02:00</time>
   </trkpt>
   <trkpt lat="47.427517" lon="3.784243">
    <ele>178</ele>
    <time>2019-06-08T14:47:50+02:00</time>
   </trkpt>
   <trkpt lat="47.427648" lon="3.784243">
    <ele>178</ele>
    <time>2019-06-08T14:48:35+02:00</time>
   </trkpt>
   <trkpt lat="47.427902" lon="3.784232">
    <ele>178</ele>
    <time>2019-06-08T14:48:58+02:00</time>
   </trkpt>
   <trkpt lat="47.428156" lon="3.7842">
    <ele>178</ele>
    <time>2019-06-08T14:49:21+02:00</time>
   </trkpt>
   <trkpt lat="47.428348" lon="3.78415">
    <ele>178</ele>
    <time>2019-06-08T14:49:39+02:00</time>
   </trkpt>
   <trkpt lat="47.428575" lon="3.784125">
    <ele>178</ele>
    <time>2019-06-08T14:49:56+02:00</time>
   </trkpt>
   <trkpt lat="47.428802" lon="3.784075">
    <ele>178</ele>
    <time>2019-06-08T14:50:14+02:00</time>
   </trkpt>
   <trkpt lat="47.429028" lon="3.784008">
    <ele>177</ele>
    <time>2019-06-08T14:50:38+02:00</time>
   </trkpt>
   <trkpt lat="47.429253" lon="3.783998">
    <ele>177</ele>
    <time>2019-06-08T14:50:59+02:00</time>
   </trkpt>
   <trkpt lat="47.429487" lon="3.783992">
    <ele>176</ele>
    <time>2019-06-08T14:51:17+02:00</time>
   </trkpt>
   <trkpt lat="47.429725" lon="3.783987">
    <ele>175</ele>
    <time>2019-06-08T14:51:32+02:00</time>
   </trkpt>
   <trkpt lat="47.42995" lon="3.783943">
    <ele>174</ele>
    <time>2019-06-08T14:51:54+02:00</time>
   </trkpt>
   <trkpt lat="47.430182" lon="3.783955">
    <ele>173</ele>
    <time>2019-06-08T14:52:16+02:00</time>
   </trkpt>
   <trkpt lat="47.430418" lon="3.783967">
    <ele>171</ele>
    <time>2019-06-08T14:52:39+02:00</time>
   </trkpt>
   <trkpt lat="47.430616" lon="3.783953">
    <ele>170</ele>
    <time>2019-06-08T14:53:04+02:00</time>
   </trkpt>
   <trkpt lat="47.430848" lon="3.783953">
    <ele>168</ele>
    <time>2019-06-08T14:53:20+02:00</time>
   </trkpt>
   <trkpt lat="47.431131" lon="3.783867">
    <ele>166</ele>
    <time>2019-06-08T14:53:40+02:00</time>
   </trkpt>
   <trkpt lat="47.431502" lon="3.783674">
    <ele>165</ele>
    <time>2019-06-08T14:54:20+02:00</time>
   </trkpt>
   <trkpt lat="47.431436" lon="3.7839">
    <ele>166</ele>
    <time>2020-05-22T17:43:28+02:00</time>
   </trkpt>
   <trkpt lat="47.431335" lon="3.784071">
    <ele>167</ele>
    <time>2020-05-22T17:43:33+02:00</time>
   </trkpt>
   <trkpt lat="47.431356" lon="3.784307">
    <ele>168</ele>
    <time>2019-06-08T14:55:22+02:00</time>
   </trkpt>
   <trkpt lat="47.431429" lon="3.784554">
    <ele>168</ele>
    <time>2019-06-08T14:55:41+02:00</time>
   </trkpt>
   <trkpt lat="47.431531" lon="3.784876">
    <ele>168</ele>
    <time>2019-06-08T14:56:02+02:00</time>
   </trkpt>
   <trkpt lat="47.431611" lon="3.785176">
    <ele>167</ele>
    <time>2019-06-08T14:56:21+02:00</time>
   </trkpt>
   <trkpt lat="47.43177" lon="3.78538">
    <ele>166</ele>
    <time>2019-06-08T14:56:40+02:00</time>
   </trkpt>
   <trkpt lat="47.431756" lon="3.785627">
    <ele>165</ele>
    <time>2020-05-22T17:44:03+02:00</time>
   </trkpt>
   <trkpt lat="47.431756" lon="3.78582">
    <ele>165</ele>
    <time>2019-06-08T14:56:59+02:00</time>
   </trkpt>
   <trkpt lat="47.431857" lon="3.786002">
    <ele>165</ele>
    <time>2019-06-08T14:57:31+02:00</time>
   </trkpt>
   <trkpt lat="47.431915" lon="3.786153">
    <ele>165</ele>
    <time>2019-06-08T15:07:13+02:00</time>
   </trkpt>
   <trkpt lat="47.431923" lon="3.786378">
    <ele>164</ele>
    <time>2020-05-22T17:44:23+02:00</time>
   </trkpt>
   <trkpt lat="47.431937" lon="3.786625">
    <ele>163</ele>
    <time>2020-05-22T17:44:28+02:00</time>
   </trkpt>
   <trkpt lat="47.431705" lon="3.786818">
    <ele>164</ele>
    <time>2020-05-22T17:44:33+02:00</time>
   </trkpt>
   <trkpt lat="47.431386" lon="3.787118">
    <ele>167</ele>
    <time>2020-05-22T17:44:38+02:00</time>
   </trkpt>
   <trkpt lat="47.431233" lon="3.787429">
    <ele>166</ele>
    <time>2019-06-08T15:11:12+02:00</time>
   </trkpt>
   <trkpt lat="47.431044" lon="3.787783">
    <ele>165</ele>
    <time>2020-05-22T17:44:48+02:00</time>
   </trkpt>
   <trkpt lat="47.430921" lon="3.788223">
    <ele>164</ele>
    <time>2019-06-08T15:11:13+02:00</time>
   </trkpt>
   <trkpt lat="47.430747" lon="3.788642">
    <ele>164</ele>
    <time>2019-06-08T15:11:15+02:00</time>
   </trkpt>
   <trkpt lat="47.43066" lon="3.78891">
    <ele>165</ele>
    <time>2019-06-08T15:11:30+02:00</time>
   </trkpt>
   <trkpt lat="47.430507" lon="3.7892">
    <ele>166</ele>
    <time>2019-06-08T15:11:56+02:00</time>
   </trkpt>
   <trkpt lat="47.430406" lon="3.789479">
    <ele>167</ele>
    <time>2019-06-08T15:12:18+02:00</time>
   </trkpt>
   <trkpt lat="47.430224" lon="3.789779">
    <ele>167</ele>
    <time>2019-06-08T15:12:43+02:00</time>
   </trkpt>
   <trkpt lat="47.430072" lon="3.789993">
    <ele>166</ele>
    <time>2019-06-08T15:13:02+02:00</time>
   </trkpt>
   <trkpt lat="47.429898" lon="3.790208">
    <ele>166</ele>
    <time>2019-06-08T15:13:23+02:00</time>
   </trkpt>
   <trkpt lat="47.42968" lon="3.790487">
    <ele>166</ele>
    <time>2019-06-08T15:13:40+02:00</time>
   </trkpt>
   <trkpt lat="47.429448" lon="3.790702">
    <ele>165</ele>
    <time>2019-06-08T15:13:59+02:00</time>
   </trkpt>
   <trkpt lat="47.429259" lon="3.791023">
    <ele>165</ele>
    <time>2019-06-08T15:14:19+02:00</time>
   </trkpt>
   <trkpt lat="47.42907" lon="3.791345">
    <ele>166</ele>
    <time>2019-06-08T15:14:40+02:00</time>
   </trkpt>
   <trkpt lat="47.428838" lon="3.79171">
    <ele>166</ele>
    <time>2019-06-08T15:15:00+02:00</time>
   </trkpt>
   <trkpt lat="47.428736" lon="3.792096">
    <ele>167</ele>
    <time>2019-06-08T15:15:18+02:00</time>
   </trkpt>
   <trkpt lat="47.428664" lon="3.792375">
    <ele>167</ele>
    <time>2019-06-08T15:15:57+02:00</time>
   </trkpt>
   <trkpt lat="47.428446" lon="3.792654">
    <ele>166</ele>
    <time>2019-06-08T15:16:23+02:00</time>
   </trkpt>
   <trkpt lat="47.428199" lon="3.792869">
    <ele>165</ele>
    <time>2019-06-08T15:16:43+02:00</time>
   </trkpt>
   <trkpt lat="47.427982" lon="3.793212">
    <ele>165</ele>
    <time>2019-06-08T15:17:05+02:00</time>
   </trkpt>
   <trkpt lat="47.427807" lon="3.79362">
    <ele>164</ele>
    <time>2019-06-08T15:18:49+02:00</time>
   </trkpt>
   <trkpt lat="47.427793" lon="3.793899">
    <ele>165</ele>
    <time>2019-06-08T15:19:08+02:00</time>
   </trkpt>
   <trkpt lat="47.427758" lon="3.794192">
    <ele>165</ele>
    <time>2019-06-08T15:20:24+02:00</time>
   </trkpt>
   <trkpt lat="47.427705" lon="3.794454">
    <ele>165</ele>
    <time>2020-05-22T17:46:38+02:00</time>
   </trkpt>
   <trkpt lat="47.427698" lon="3.794712">
    <ele>167</ele>
    <time>2019-06-08T15:20:50+02:00</time>
   </trkpt>
   <trkpt lat="47.427669" lon="3.795033">
    <ele>167</ele>
    <time>2019-06-08T15:21:15+02:00</time>
   </trkpt>
   <trkpt lat="47.427633" lon="3.795323">
    <ele>167</ele>
    <time>2019-06-08T15:22:12+02:00</time>
   </trkpt>
   <trkpt lat="47.427705" lon="3.795591">
    <ele>168</ele>
    <time>2019-06-08T15:22:58+02:00</time>
   </trkpt>
   <trkpt lat="47.427778" lon="3.795959">
    <ele>170</ele>
    <time>2019-06-08T15:23:29+02:00</time>
   </trkpt>
   <trkpt lat="47.427823" lon="3.79624">
    <ele>171</ele>
    <time>2019-06-08T15:23:54+02:00</time>
   </trkpt>
   <trkpt lat="47.427858" lon="3.796573">
    <ele>171</ele>
    <time>2019-06-08T15:24:16+02:00</time>
   </trkpt>
   <trkpt lat="47.427952" lon="3.797061">
    <ele>173</ele>
    <time>2019-06-08T15:24:37+02:00</time>
   </trkpt>
   <trkpt lat="47.427989" lon="3.797404">
    <ele>174</ele>
    <time>2019-06-08T15:25:17+02:00</time>
   </trkpt>
   <trkpt lat="47.428039" lon="3.797941">
    <ele>175</ele>
    <time>2019-06-08T15:26:02+02:00</time>
   </trkpt>
   <trkpt lat="47.428092" lon="3.798235">
    <ele>176</ele>
    <time>2019-06-08T15:26:24+02:00</time>
   </trkpt>
   <trkpt lat="47.428128" lon="3.798575">
    <ele>177</ele>
    <time>2019-06-08T15:26:39+02:00</time>
   </trkpt>
   <trkpt lat="47.428207" lon="3.798888">
    <ele>177</ele>
    <time>2019-06-08T15:26:58+02:00</time>
   </trkpt>
   <trkpt lat="47.428213" lon="3.79922">
    <ele>176</ele>
    <time>2019-06-08T15:27:14+02:00</time>
   </trkpt>
   <trkpt lat="47.428221" lon="3.79955">
    <ele>176</ele>
    <time>2019-06-08T15:27:34+02:00</time>
   </trkpt>
   <trkpt lat="47.428228" lon="3.799928">
    <ele>175</ele>
    <time>2019-06-08T15:27:52+02:00</time>
   </trkpt>
   <trkpt lat="47.428228" lon="3.800269">
    <ele>176</ele>
    <time>2019-06-08T15:28:17+02:00</time>
   </trkpt>
   <trkpt lat="47.428193" lon="3.80061">
    <ele>177</ele>
    <time>2019-06-08T15:28:36+02:00</time>
   </trkpt>
   <trkpt lat="47.428185" lon="3.800945">
    <ele>177</ele>
    <time>2019-06-08T15:28:57+02:00</time>
   </trkpt>
   <trkpt lat="47.42811" lon="3.801273">
    <ele>175</ele>
    <time>2019-06-08T15:29:17+02:00</time>
   </trkpt>
   <trkpt lat="47.42801" lon="3.801653">
    <ele>174</ele>
    <time>2019-06-08T15:29:35+02:00</time>
   </trkpt>
   <trkpt lat="47.427747" lon="3.801643">
    <ele>172</ele>
    <time>2019-06-08T15:30:04+02:00</time>
   </trkpt>
   <trkpt lat="47.427517" lon="3.801589">
    <ele>170</ele>
    <time>2019-06-08T15:30:24+02:00</time>
   </trkpt>
   <trkpt lat="47.427335" lon="3.801557">
    <ele>169</ele>
    <time>2019-06-08T15:30:56+02:00</time>
   </trkpt>
   <trkpt lat="47.427103" lon="3.801653">
    <ele>169</ele>
    <time>2019-06-08T15:31:25+02:00</time>
   </trkpt>
   <trkpt lat="47.426864" lon="3.801728">
    <ele>170</ele>
    <time>2019-06-08T15:31:46+02:00</time>
   </trkpt>
   <trkpt lat="47.426618" lon="3.80183">
    <ele>173</ele>
    <time>2019-06-08T15:32:06+02:00</time>
   </trkpt>
   <trkpt lat="47.426399" lon="3.801835">
    <ele>174</ele>
    <time>2019-06-08T15:32:29+02:00</time>
   </trkpt>
   <trkpt lat="47.42617" lon="3.801897">
    <ele>175</ele>
    <time>2019-06-08T15:32:46+02:00</time>
   </trkpt>
   <trkpt lat="47.42594" lon="3.80192">
    <ele>176</ele>
    <time>2019-06-08T15:33:10+02:00</time>
   </trkpt>
   <trkpt lat="47.425715" lon="3.801915">
    <ele>176</ele>
    <time>2019-06-08T15:33:26+02:00</time>
   </trkpt>
   <trkpt lat="47.425456" lon="3.801988">
    <ele>178</ele>
    <time>2019-06-08T15:33:49+02:00</time>
   </trkpt>
   <trkpt lat="47.425165" lon="3.801988">
    <ele>178</ele>
    <time>2019-06-08T15:34:06+02:00</time>
   </trkpt>
   <trkpt lat="47.424918" lon="3.801967">
    <ele>178</ele>
    <time>2019-06-08T15:34:27+02:00</time>
   </trkpt>
   <trkpt lat="47.424657" lon="3.801902">
    <ele>178</ele>
    <time>2019-06-08T15:35:00+02:00</time>
   </trkpt>
   <trkpt lat="47.424468" lon="3.801688">
    <ele>173</ele>
    <time>2019-06-08T15:35:18+02:00</time>
   </trkpt>
   <trkpt lat="47.424251" lon="3.801559">
    <ele>173</ele>
    <time>2019-06-08T15:35:39+02:00</time>
   </trkpt>
   <trkpt lat="47.424033" lon="3.801388">
    <ele>175</ele>
    <time>2019-06-08T15:35:55+02:00</time>
   </trkpt>
   <trkpt lat="47.423801" lon="3.801173">
    <ele>177</ele>
    <time>2019-06-08T15:36:16+02:00</time>
   </trkpt>
   <trkpt lat="47.423612" lon="3.800915">
    <ele>176</ele>
    <time>2019-06-08T15:36:36+02:00</time>
   </trkpt>
   <trkpt lat="47.423409" lon="3.800636">
    <ele>175</ele>
    <time>2019-06-08T15:37:06+02:00</time>
   </trkpt>
   <trkpt lat="47.42322" lon="3.800379">
    <ele>175</ele>
    <time>2019-06-08T15:37:30+02:00</time>
   </trkpt>
   <trkpt lat="47.423017" lon="3.800057">
    <ele>174</ele>
    <time>2019-06-08T15:37:53+02:00</time>
   </trkpt>
   <trkpt lat="47.422886" lon="3.799735">
    <ele>174</ele>
    <time>2019-06-08T15:38:29+02:00</time>
   </trkpt>
   <trkpt lat="47.42277" lon="3.799413">
    <ele>173</ele>
    <time>2019-06-08T15:38:55+02:00</time>
   </trkpt>
   <trkpt lat="47.42261" lon="3.799199">
    <ele>172</ele>
    <time>2019-06-08T15:39:12+02:00</time>
   </trkpt>
   <trkpt lat="47.422523" lon="3.798834">
    <ele>168</ele>
    <time>2019-06-08T15:39:29+02:00</time>
   </trkpt>
   <trkpt lat="47.422349" lon="3.798512">
    <ele>169</ele>
    <time>2019-06-08T15:39:52+02:00</time>
   </trkpt>
   <trkpt lat="47.42216" lon="3.798083">
    <ele>169</ele>
    <time>2019-06-08T15:40:10+02:00</time>
   </trkpt>
   <trkpt lat="47.422052" lon="3.797957">
    <ele>169</ele>
    <time>2019-06-08T15:40:26+02:00</time>
   </trkpt>
   <trkpt lat="47.421852" lon="3.797758">
    <ele>168</ele>
    <time>2019-06-08T15:40:58+02:00</time>
   </trkpt>
   <trkpt lat="47.421652" lon="3.797611">
    <ele>166</ele>
    <time>2019-06-08T15:41:22+02:00</time>
   </trkpt>
   <trkpt lat="47.421434" lon="3.797482">
    <ele>164</ele>
    <time>2019-06-08T15:41:35+02:00</time>
   </trkpt>
   <trkpt lat="47.421216" lon="3.797439">
    <ele>164</ele>
    <time>2019-06-08T15:41:50+02:00</time>
   </trkpt>
   <trkpt lat="47.420941" lon="3.797418">
    <ele>165</ele>
    <time>2019-06-08T15:42:11+02:00</time>
   </trkpt>
   <trkpt lat="47.420723" lon="3.797611">
    <ele>168</ele>
    <time>2019-06-08T15:42:33+02:00</time>
   </trkpt>
   <trkpt lat="47.420578" lon="3.797911">
    <ele>171</ele>
    <time>2019-06-08T15:42:54+02:00</time>
   </trkpt>
   <trkpt lat="47.420447" lon="3.798147">
    <ele>172</ele>
    <time>2019-06-08T15:43:23+02:00</time>
   </trkpt>
   <trkpt lat="47.420403" lon="3.798405">
    <ele>174</ele>
    <time>2019-06-08T15:44:28+02:00</time>
   </trkpt>
   <trkpt lat="47.420316" lon="3.798834">
    <ele>177</ele>
    <time>2019-06-08T15:44:50+02:00</time>
   </trkpt>
   <trkpt lat="47.42019" lon="3.799265">
    <ele>179</ele>
    <time>2019-06-08T15:45:16+02:00</time>
   </trkpt>
   <trkpt lat="47.420058" lon="3.799555">
    <ele>180</ele>
    <time>2019-06-08T15:45:37+02:00</time>
   </trkpt>
   <trkpt lat="47.419862" lon="3.799735">
    <ele>179</ele>
    <time>2019-06-08T15:46:02+02:00</time>
   </trkpt>
   <trkpt lat="47.419693" lon="3.799973">
    <ele>180</ele>
    <time>2019-06-08T15:46:13+02:00</time>
   </trkpt>
   <trkpt lat="47.419517" lon="3.800192">
    <ele>180</ele>
    <time>2019-06-08T15:46:37+02:00</time>
   </trkpt>
   <trkpt lat="47.419348" lon="3.800425">
    <ele>179</ele>
    <time>2019-06-08T15:47:04+02:00</time>
   </trkpt>
   <trkpt lat="47.419163" lon="3.800637">
    <ele>176</ele>
    <time>2019-06-08T15:47:20+02:00</time>
   </trkpt>
   <trkpt lat="47.419028" lon="3.800903">
    <ele>178</ele>
    <time>2019-06-08T15:47:37+02:00</time>
   </trkpt>
   <trkpt lat="47.418917" lon="3.801197">
    <ele>180</ele>
    <time>2019-06-08T15:47:59+02:00</time>
   </trkpt>
   <trkpt lat="47.418753" lon="3.801457">
    <ele>180</ele>
    <time>2019-06-08T15:48:19+02:00</time>
   </trkpt>
   <trkpt lat="47.418625" lon="3.80173">
    <ele>180</ele>
    <time>2019-06-08T15:48:37+02:00</time>
   </trkpt>
   <trkpt lat="47.418443" lon="3.80201">
    <ele>180</ele>
    <time>2019-06-08T15:48:57+02:00</time>
   </trkpt>
   <trkpt lat="47.418313" lon="3.802203">
    <ele>179</ele>
    <time>2019-06-08T15:49:18+02:00</time>
   </trkpt>
   <trkpt lat="47.418153" lon="3.802503">
    <ele>181</ele>
    <time>2019-06-08T15:49:40+02:00</time>
   </trkpt>
   <trkpt lat="47.418022" lon="3.802761">
    <ele>182</ele>
    <time>2019-06-08T15:50:02+02:00</time>
   </trkpt>
   <trkpt lat="47.417848" lon="3.803018">
    <ele>180</ele>
    <time>2019-06-08T15:50:21+02:00</time>
   </trkpt>
   <trkpt lat="47.417805" lon="3.803358">
    <ele>181</ele>
    <time>2019-06-08T15:51:41+02:00</time>
   </trkpt>
   <trkpt lat="47.417717" lon="3.803665">
    <ele>182</ele>
    <time>2019-06-08T15:52:14+02:00</time>
   </trkpt>
   <trkpt lat="47.417542" lon="3.803908">
    <ele>178</ele>
    <time>2019-06-08T15:52:42+02:00</time>
   </trkpt>
   <trkpt lat="47.417325" lon="3.804134">
    <ele>177</ele>
    <time>2019-06-08T15:53:11+02:00</time>
   </trkpt>
   <trkpt lat="47.417127" lon="3.804208">
    <ele>176</ele>
    <time>2019-06-08T15:53:50+02:00</time>
   </trkpt>
   <trkpt lat="47.416911" lon="3.804367">
    <ele>176</ele>
    <time>2019-06-08T15:54:44+02:00</time>
   </trkpt>
   <trkpt lat="47.416657" lon="3.804413">
    <ele>173</ele>
    <time>2019-06-08T15:55:09+02:00</time>
   </trkpt>
   <trkpt lat="47.416367" lon="3.804563">
    <ele>175</ele>
    <time>2019-06-08T15:55:21+02:00</time>
   </trkpt>
   <trkpt lat="47.416175" lon="3.804783">
    <ele>176</ele>
    <time>2019-06-08T15:55:34+02:00</time>
   </trkpt>
   <trkpt lat="47.415978" lon="3.805011">
    <ele>175</ele>
    <time>2019-06-08T15:57:22+02:00</time>
   </trkpt>
   <trkpt lat="47.415855" lon="3.80529">
    <ele>177</ele>
    <time>2019-06-08T15:57:50+02:00</time>
   </trkpt>
   <trkpt lat="47.415775" lon="3.805612">
    <ele>180</ele>
    <time>2019-06-08T15:58:20+02:00</time>
   </trkpt>
   <trkpt lat="47.41571" lon="3.805955">
    <ele>181</ele>
    <time>2019-06-08T15:58:47+02:00</time>
   </trkpt>
   <trkpt lat="47.415739" lon="3.806148">
    <ele>181</ele>
    <time>2020-05-22T17:54:08+02:00</time>
   </trkpt>
   <trkpt lat="47.415885" lon="3.806238">
    <ele>183</ele>
    <time>2019-06-08T15:59:18+02:00</time>
   </trkpt>
   <trkpt lat="47.416149" lon="3.806258">
    <ele>188</ele>
    <time>2019-06-08T15:59:44+02:00</time>
   </trkpt>
   <trkpt lat="47.416378" lon="3.806374">
    <ele>191</ele>
    <time>2019-06-08T16:00:06+02:00</time>
   </trkpt>
   <trkpt lat="47.416614" lon="3.806215">
    <ele>196</ele>
    <time>2019-06-08T16:00:38+02:00</time>
   </trkpt>
   <trkpt lat="47.416759" lon="3.806108">
    <ele>199</ele>
    <time>2019-06-08T16:01:03+02:00</time>
   </trkpt>
   <trkpt lat="47.4169" lon="3.80603">
    <ele>202</ele>
    <time>2019-06-08T16:01:32+02:00</time>
   </trkpt>
   <trkpt lat="47.417104" lon="3.805784">
    <ele>207</ele>
    <time>2019-06-08T16:01:52+02:00</time>
   </trkpt>
   <trkpt lat="47.417345" lon="3.805742">
    <ele>211</ele>
    <time>2019-06-08T16:02:21+02:00</time>
   </trkpt>
   <trkpt lat="47.417597" lon="3.805612">
    <ele>213</ele>
    <time>2019-06-08T16:02:56+02:00</time>
   </trkpt>
   <trkpt lat="47.417801" lon="3.805644">
    <ele>216</ele>
    <time>2020-05-22T17:54:58+02:00</time>
   </trkpt>
   <trkpt lat="47.417888" lon="3.805805">
    <ele>218</ele>
    <time>2019-06-08T16:03:19+02:00</time>
   </trkpt>
   <trkpt lat="47.41796" lon="3.806084">
    <ele>217</ele>
    <time>2019-06-08T16:06:08+02:00</time>
   </trkpt>
   <trkpt lat="47.418178" lon="3.806245">
    <ele>219</ele>
    <time>2019-06-08T16:06:38+02:00</time>
   </trkpt>
   <trkpt lat="47.418347" lon="3.806427">
    <ele>219</ele>
    <time>2019-06-08T16:07:18+02:00</time>
   </trkpt>
   <trkpt lat="47.418599" lon="3.806545">
    <ele>219</ele>
    <time>2019-06-08T16:09:10+02:00</time>
   </trkpt>
   <trkpt lat="47.418788" lon="3.806545">
    <ele>219</ele>
    <time>2019-06-08T16:09:39+02:00</time>
   </trkpt>
   <trkpt lat="47.418868" lon="3.806449">
    <ele>220</ele>
    <time>2020-05-22T17:55:33+02:00</time>
   </trkpt>
   <trkpt lat="47.41894" lon="3.806288">
    <ele>221</ele>
    <time>2019-06-08T16:09:54+02:00</time>
   </trkpt>
   <trkpt lat="47.419222" lon="3.806465">
    <ele>220</ele>
    <time>2019-06-08T16:10:13+02:00</time>
   </trkpt>
   <trkpt lat="47.419433" lon="3.806593">
    <ele>220</ele>
    <time>2019-06-08T16:10:30+02:00</time>
   </trkpt>
   <trkpt lat="47.41964" lon="3.806753">
    <ele>217</ele>
    <time>2019-06-08T16:10:50+02:00</time>
   </trkpt>
   <trkpt lat="47.419847" lon="3.806893">
    <ele>214</ele>
    <time>2019-06-08T16:11:05+02:00</time>
   </trkpt>
   <trkpt lat="47.420068" lon="3.807002">
    <ele>213</ele>
    <time>2019-06-08T16:11:22+02:00</time>
   </trkpt>
   <trkpt lat="47.420297" lon="3.807105">
    <ele>214</ele>
    <time>2019-06-08T16:11:39+02:00</time>
   </trkpt>
   <trkpt lat="47.420518" lon="3.807213">
    <ele>215</ele>
    <time>2019-06-08T16:11:55+02:00</time>
   </trkpt>
   <trkpt lat="47.420717" lon="3.807378">
    <ele>217</ele>
    <time>2019-06-08T16:12:15+02:00</time>
   </trkpt>
   <trkpt lat="47.420882" lon="3.807632">
    <ele>217</ele>
    <time>2019-06-08T16:12:36+02:00</time>
   </trkpt>
   <trkpt lat="47.421042" lon="3.807846">
    <ele>216</ele>
    <time>2019-06-08T16:12:54+02:00</time>
   </trkpt>
   <trkpt lat="47.4211" lon="3.808125">
    <ele>215</ele>
    <time>2019-06-08T16:13:12+02:00</time>
   </trkpt>
   <trkpt lat="47.421154" lon="3.808391">
    <ele>214</ele>
    <time>2020-05-22T17:56:38+02:00</time>
   </trkpt>
   <trkpt lat="47.421173" lon="3.808662">
    <ele>213</ele>
    <time>2019-06-08T16:13:46+02:00</time>
   </trkpt>
   <trkpt lat="47.42122" lon="3.808855">
    <ele>213</ele>
    <time>2020-05-22T17:56:48+02:00</time>
   </trkpt>
   <trkpt lat="47.421304" lon="3.808962">
    <ele>215</ele>
    <time>2019-06-08T16:18:19+02:00</time>
   </trkpt>
   <trkpt lat="47.421441" lon="3.809316">
    <ele>219</ele>
    <time>2019-06-08T16:18:40+02:00</time>
   </trkpt>
   <trkpt lat="47.42147" lon="3.809697">
    <ele>222</ele>
    <time>2019-06-08T16:19:03+02:00</time>
   </trkpt>
   <trkpt lat="47.421561" lon="3.809933">
    <ele>227</ele>
    <time>2019-06-08T16:21:23+02:00</time>
   </trkpt>
   <trkpt lat="47.421804" lon="3.810207">
    <ele>235</ele>
    <time>2019-06-08T16:21:54+02:00</time>
   </trkpt>
   <trkpt lat="47.42204" lon="3.810427">
    <ele>239</ele>
    <time>2019-06-08T16:22:21+02:00</time>
   </trkpt>
   <trkpt lat="47.422058" lon="3.810738">
    <ele>243</ele>
    <time>2019-06-08T16:23:03+02:00</time>
   </trkpt>
   <trkpt lat="47.421899" lon="3.811001">
    <ele>245</ele>
    <time>2019-06-08T16:23:28+02:00</time>
   </trkpt>
   <trkpt lat="47.421735" lon="3.811041">
    <ele>244</ele>
    <time>2020-05-22T17:57:33+02:00</time>
   </trkpt>
   <trkpt lat="47.42159" lon="3.810781">
    <ele>237</ele>
    <time>2019-06-08T16:23:54+02:00</time>
   </trkpt>
   <trkpt lat="47.421739" lon="3.811041">
    <ele>244</ele>
    <time>2020-05-22T17:57:43+02:00</time>
   </trkpt>
   <trkpt lat="47.4219" lon="3.810997">
    <ele>245</ele>
    <time>2019-06-08T16:26:19+02:00</time>
   </trkpt>
   <trkpt lat="47.422057" lon="3.810742">
    <ele>243</ele>
    <time>2019-06-08T16:26:57+02:00</time>
   </trkpt>
   <trkpt lat="47.422037" lon="3.810427">
    <ele>239</ele>
    <time>2019-06-08T16:28:02+02:00</time>
   </trkpt>
   <trkpt lat="47.421803" lon="3.810205">
    <ele>235</ele>
    <time>2019-06-08T16:28:17+02:00</time>
   </trkpt>
   <trkpt lat="47.421558" lon="3.809944">
    <ele>227</ele>
    <time>2019-06-08T16:28:45+02:00</time>
   </trkpt>
   <trkpt lat="47.421402" lon="3.810266">
    <ele>224</ele>
    <time>2019-06-08T16:29:08+02:00</time>
   </trkpt>
   <trkpt lat="47.421264" lon="3.810577">
    <ele>222</ele>
    <time>2019-06-08T16:29:32+02:00</time>
   </trkpt>
   <trkpt lat="47.421104" lon="3.810866">
    <ele>220</ele>
    <time>2019-06-08T16:29:55+02:00</time>
   </trkpt>
   <trkpt lat="47.420978" lon="3.811108">
    <ele>219</ele>
    <time>2019-06-08T16:30:12+02:00</time>
   </trkpt>
   <trkpt lat="47.420813" lon="3.811341">
    <ele>217</ele>
    <time>2019-06-08T16:30:29+02:00</time>
   </trkpt>
   <trkpt lat="47.420639" lon="3.811577">
    <ele>214</ele>
    <time>2019-06-08T16:30:47+02:00</time>
   </trkpt>
   <trkpt lat="47.420453" lon="3.811783">
    <ele>211</ele>
    <time>2019-06-08T16:31:06+02:00</time>
   </trkpt>
   <trkpt lat="47.420252" lon="3.811947">
    <ele>207</ele>
    <time>2019-06-08T16:31:24+02:00</time>
   </trkpt>
   <trkpt lat="47.420045" lon="3.812078">
    <ele>203</ele>
    <time>2019-06-08T16:31:42+02:00</time>
   </trkpt>
   <trkpt lat="47.419833" lon="3.812167">
    <ele>198</ele>
    <time>2019-06-08T16:32:00+02:00</time>
   </trkpt>
   <trkpt lat="47.419608" lon="3.812237">
    <ele>192</ele>
    <time>2019-06-08T16:32:18+02:00</time>
   </trkpt>
   <trkpt lat="47.419343" lon="3.812409">
    <ele>186</ele>
    <time>2019-06-08T16:32:37+02:00</time>
   </trkpt>
   <trkpt lat="47.419198" lon="3.812548">
    <ele>184</ele>
    <time>2019-06-08T16:32:55+02:00</time>
   </trkpt>
   <trkpt lat="47.418998" lon="3.812709">
    <ele>184</ele>
    <time>2019-06-08T16:33:14+02:00</time>
   </trkpt>
   <trkpt lat="47.418788" lon="3.812934">
    <ele>185</ele>
    <time>2019-06-08T16:33:32+02:00</time>
   </trkpt>
   <trkpt lat="47.418523" lon="3.813079">
    <ele>181</ele>
    <time>2020-05-22T17:59:28+02:00</time>
   </trkpt>
   <trkpt lat="47.418381" lon="3.813101">
    <ele>178</ele>
    <time>2019-06-08T16:33:50+02:00</time>
   </trkpt>
   <trkpt lat="47.418349" lon="3.812908">
    <ele>173</ele>
    <time>2019-06-08T16:34:12+02:00</time>
   </trkpt>
   <trkpt lat="47.418244" lon="3.812723">
    <ele>168</ele>
    <time>2019-06-08T16:34:52+02:00</time>
   </trkpt>
   <trkpt lat="47.418077" lon="3.812486">
    <ele>165</ele>
    <time>2019-06-08T16:35:17+02:00</time>
   </trkpt>
   <trkpt lat="47.417924" lon="3.812229">
    <ele>166</ele>
    <time>2019-06-08T16:35:37+02:00</time>
   </trkpt>
   <trkpt lat="47.417779" lon="3.811993">
    <ele>167</ele>
    <time>2019-06-08T16:35:57+02:00</time>
   </trkpt>
   <trkpt lat="47.417619" lon="3.811671">
    <ele>168</ele>
    <time>2019-06-08T16:36:14+02:00</time>
   </trkpt>
   <trkpt lat="47.417442" lon="3.811419">
    <ele>171</ele>
    <time>2019-06-08T16:36:33+02:00</time>
   </trkpt>
   <trkpt lat="47.417307" lon="3.811145">
    <ele>173</ele>
    <time>2019-06-08T16:37:26+02:00</time>
   </trkpt>
   <trkpt lat="47.417209" lon="3.811129">
    <ele>174</ele>
    <time>2019-06-08T16:41:40+02:00</time>
   </trkpt>
   <trkpt lat="47.416941" lon="3.811017">
    <ele>176</ele>
    <time>2019-06-08T16:41:57+02:00</time>
   </trkpt>
   <trkpt lat="47.416723" lon="3.810872">
    <ele>179</ele>
    <time>2019-06-08T16:42:40+02:00</time>
   </trkpt>
   <trkpt lat="47.416363" lon="3.8107">
    <ele>182</ele>
    <time>2019-06-08T16:43:02+02:00</time>
   </trkpt>
   <trkpt lat="47.416262" lon="3.810652">
    <ele>183</ele>
    <time>2019-06-08T16:43:26+02:00</time>
   </trkpt>
   <trkpt lat="47.416102" lon="3.81062">
    <ele>184</ele>
    <time>2019-06-08T16:44:32+02:00</time>
   </trkpt>
   <trkpt lat="47.416131" lon="3.810217">
    <ele>183</ele>
    <time>2019-06-08T16:45:08+02:00</time>
   </trkpt>
   <trkpt lat="47.416225" lon="3.810067">
    <ele>182</ele>
    <time>2020-05-22T18:00:53+02:00</time>
   </trkpt>
   <trkpt lat="47.41624" lon="3.809794">
    <ele>180</ele>
    <time>2019-06-08T16:45:45+02:00</time>
   </trkpt>
  </trkseg>
 </trk></gpx>